Huvudsida
METAR-TAF:

METAR-TAF

Flygplatser :

Wallis, Frankrike

latitud: 13-14S, longitud: 176-10W, höjd: 23 m

METAR: saknas

Tid: 08:50 (20:50 UTC)

Väderprognos

Denna rapport gjordes för 3 timmar och 50 minuter sedan, klockan 17:00 UTC
Prognos gäller från 12 kl. 18 UTC till 13 kl. 18 UTC
Vind 10 kt från ost
Sikt 10 km eller mer
Brutna moln på en höjd av 2000 ft
Sannolikhet 30% :
Temporärt
från 12 kl. 18 UTC till 12 kl. 21 UTC
Få moln på en höjd av 3000 ft, Högtornande cumulus.
regnskurar
Temporärt
från 13 kl. 00 UTC till 13 kl. 09 UTC
regnskurar
Temporärt
från 13 kl. 09 UTC till 13 kl. 18 UTC
Sikt: 3500 m
Brutna moln på en höjd av 1400 ft
Spridda moln på en höjd av 2000 ft, Högtornande cumulus.
regnskurar

TAF: NLWW 121700Z 1218/1318 10010KT 9999 BKN020 PROB30 TEMPO 1218/1221 SHRA FEW030TCU TEMPO 1300/1309 SHRA TEMPO 1309/1318 3500 SHRA BKN014 SCT020TCU

Aktuella väderrapporter och prognoser från 4000 flygplatser (METAR- och TAF-rapporter).

De tillgängliga stationerna syns som gula och röda prickar på kartan.

För musen över prickarna för att se namnen på stationerna.

Klicka sedan för att få väderrapporter och prognoser.

För att ändra kartan: Klicka på de gröna knapparna med ett svart kors på för att zooma in; den gröna knappen med ett streck på för att zooma ut; eller på de gröna pilarna för angränsande kartor.


METAR-TAF: